sensor_id;sensor_type;location;lat;lon;timestamp;P1;durP1;ratioP1;P2;durP2;ratioP2
27985;SDS011;15453;53.692;10.168;2023-08-20T00:01:18;9.77;;;3.97;;
27985;SDS011;15453;53.692;10.168;2023-08-20T00:03:47;7.03;;;4.30;;
27985;SDS011;15453;53.692;10.168;2023-08-20T00:06:13;11.57;;;4.47;;
27985;SDS011;15453;53.692;10.168;2023-08-20T00:08:38;8.18;;;4.25;;
27985;SDS011;15453;53.692;10.168;2023-08-20T00:11:04;12.13;;;4.68;;
27985;SDS011;15453;53.692;10.168;2023-08-20T00:13:30;10.13;;;4.50;;
27985;SDS011;15453;53.692;10.168;2023-08-20T00:15:55;8.00;;;4.53;;
27985;SDS011;15453;53.692;10.168;2023-08-20T00:18:22;10.20;;;4.38;;
27985;SDS011;15453;53.692;10.168;2023-08-20T00:20:48;9.68;;;4.28;;
27985;SDS011;15453;53.692;10.168;2023-08-20T00:23:13;7.00;;;3.90;;
27985;SDS011;15453;53.692;10.168;2023-08-20T00:25:39;8.27;;;4.07;;
27985;SDS011;15453;53.692;10.168;2023-08-20T00:28:05;7.72;;;4.13;;
27985;SDS011;15453;53.692;10.168;2023-08-20T00:30:30;9.15;;;4.30;;
27985;SDS011;15453;53.692;10.168;2023-08-20T00:32:56;9.10;;;5.05;;
27985;SDS011;15453;53.692;10.168;2023-08-20T00:35:21;10.48;;;4.40;;
27985;SDS011;15453;53.692;10.168;2023-08-20T00:37:47;8.38;;;4.50;;
27985;SDS011;15453;53.692;10.168;2023-08-20T00:40:12;8.27;;;4.90;;
27985;SDS011;15453;53.692;10.168;2023-08-20T00:42:37;15.68;;;5.55;;
27985;SDS011;15453;53.692;10.168;2023-08-20T00:45:03;8.35;;;4.70;;
27985;SDS011;15453;53.692;10.168;2023-08-20T00:47:29;10.15;;;4.85;;
27985;SDS011;15453;53.692;10.168;2023-08-20T00:49:54;8.35;;;4.78;;
27985;SDS011;15453;53.692;10.168;2023-08-20T00:52:20;11.20;;;5.82;;
27985;SDS011;15453;53.692;10.168;2023-08-20T00:54:46;7.93;;;4.72;;
27985;SDS011;15453;53.692;10.168;2023-08-20T00:57:17;9.05;;;5.25;;
27985;SDS011;15453;53.692;10.168;2023-08-20T00:59:44;9.63;;;5.05;;
27985;SDS011;15453;53.692;10.168;2023-08-20T01:02:11;9.55;;;5.15;;
27985;SDS011;15453;53.692;10.168;2023-08-20T01:04:36;10.52;;;5.00;;
27985;SDS011;15453;53.692;10.168;2023-08-20T01:07:04;8.30;;;4.75;;
27985;SDS011;15453;53.692;10.168;2023-08-20T01:09:50;9.23;;;5.30;;
27985;SDS011;15453;53.692;10.168;2023-08-20T01:12:22;8.48;;;5.10;;
27985;SDS011;15453;53.692;10.168;2023-08-20T01:14:49;8.82;;;5.25;;
27985;SDS011;15453;53.692;10.168;2023-08-20T01:17:15;8.95;;;5.35;;
27985;SDS011;15453;53.692;10.168;2023-08-20T01:19:40;10.23;;;5.88;;
27985;SDS011;15453;53.692;10.168;2023-08-20T01:29:36;8.60;;;5.22;;
27985;SDS011;15453;53.692;10.168;2023-08-20T01:32:01;9.60;;;4.88;;
27985;SDS011;15453;53.692;10.168;2023-08-20T01:34:29;9.82;;;5.15;;
27985;SDS011;15453;53.692;10.168;2023-08-20T01:36:54;8.60;;;5.07;;
27985;SDS011;15453;53.692;10.168;2023-08-20T01:39:19;7.85;;;5.15;;
27985;SDS011;15453;53.692;10.168;2023-08-20T01:41:45;9.20;;;5.30;;
27985;SDS011;15453;53.692;10.168;2023-08-20T01:44:11;9.93;;;5.53;;
27985;SDS011;15453;53.692;10.168;2023-08-20T01:46:36;12.07;;;5.45;;
27985;SDS011;15453;53.692;10.168;2023-08-20T01:49:01;9.68;;;5.53;;
27985;SDS011;15453;53.692;10.168;2023-08-20T01:51:27;10.75;;;5.40;;
27985;SDS011;15453;53.692;10.168;2023-08-20T01:53:53;9.15;;;5.28;;
27985;SDS011;15453;53.692;10.168;2023-08-20T01:56:18;7.75;;;4.90;;
27985;SDS011;15453;53.692;10.168;2023-08-20T01:58:43;9.27;;;4.68;;
27985;SDS011;15453;53.692;10.168;2023-08-20T02:01:08;7.55;;;4.65;;
27985;SDS011;15453;53.692;10.168;2023-08-20T02:03:35;7.88;;;4.65;;
27985;SDS011;15453;53.692;10.168;2023-08-20T02:06:02;9.43;;;4.68;;
27985;SDS011;15453;53.692;10.168;2023-08-20T02:08:27;6.65;;;4.43;;
27985;SDS011;15453;53.692;10.168;2023-08-20T02:10:59;6.90;;;4.40;;
27985;SDS011;15453;53.692;10.168;2023-08-20T02:13:25;8.88;;;4.85;;
27985;SDS011;15453;53.692;10.168;2023-08-20T02:15:57;8.35;;;4.75;;
27985;SDS011;15453;53.692;10.168;2023-08-20T02:18:32;11.35;;;5.40;;
27985;SDS011;15453;53.692;10.168;2023-08-20T02:20:57;8.52;;;4.82;;
27985;SDS011;15453;53.692;10.168;2023-08-20T02:23:22;8.32;;;4.95;;
27985;SDS011;15453;53.692;10.168;2023-08-20T02:25:48;8.98;;;4.85;;
27985;SDS011;15453;53.692;10.168;2023-08-20T02:28:14;9.98;;;4.72;;
27985;SDS011;15453;53.692;10.168;2023-08-20T02:30:43;13.15;;;5.05;;
27985;SDS011;15453;53.692;10.168;2023-08-20T02:33:09;11.25;;;4.88;;
27985;SDS011;15453;53.692;10.168;2023-08-20T02:35:38;10.50;;;5.60;;
27985;SDS011;15453;53.692;10.168;2023-08-20T02:38:04;5.60;;;3.85;;
27985;SDS011;15453;53.692;10.168;2023-08-20T02:40:30;8.70;;;5.20;;
27985;SDS011;15453;53.692;10.168;2023-08-20T02:42:56;6.05;;;3.70;;
27985;SDS011;15453;53.692;10.168;2023-08-20T02:45:21;6.80;;;3.63;;
27985;SDS011;15453;53.692;10.168;2023-08-20T02:47:46;6.85;;;4.00;;
27985;SDS011;15453;53.692;10.168;2023-08-20T02:50:12;7.97;;;4.15;;
27985;SDS011;15453;53.692;10.168;2023-08-20T02:52:38;9.07;;;4.43;;
27985;SDS011;15453;53.692;10.168;2023-08-20T02:55:03;6.78;;;4.00;;
27985;SDS011;15453;53.692;10.168;2023-08-20T02:57:29;9.00;;;4.70;;
27985;SDS011;15453;53.692;10.168;2023-08-20T02:59:56;9.38;;;4.75;;
27985;SDS011;15453;53.692;10.168;2023-08-20T03:02:21;10.63;;;5.00;;
27985;SDS011;15453;53.692;10.168;2023-08-20T03:04:47;8.38;;;4.05;;
27985;SDS011;15453;53.692;10.168;2023-08-20T03:07:12;11.40;;;6.10;;
27985;SDS011;15453;53.692;10.168;2023-08-20T03:09:37;15.40;;;6.63;;
27985;SDS011;15453;53.692;10.168;2023-08-20T03:12:03;11.40;;;6.57;;
27985;SDS011;15453;53.692;10.168;2023-08-20T03:14:28;9.25;;;5.75;;
27985;SDS011;15453;53.692;10.168;2023-08-20T03:16:53;11.98;;;5.95;;
27985;SDS011;15453;53.692;10.168;2023-08-20T03:19:18;10.63;;;5.97;;
27985;SDS011;15453;53.692;10.168;2023-08-20T03:21:44;9.73;;;5.63;;
27985;SDS011;15453;53.692;10.168;2023-08-20T03:24:09;14.18;;;7.85;;
27985;SDS011;15453;53.692;10.168;2023-08-20T03:26:34;7.65;;;5.32;;
27985;SDS011;15453;53.692;10.168;2023-08-20T03:29:00;9.18;;;6.25;;
27985;SDS011;15453;53.692;10.168;2023-08-20T03:31:25;10.88;;;6.45;;
27985;SDS011;15453;53.692;10.168;2023-08-20T03:33:50;15.98;;;6.07;;
27985;SDS011;15453;53.692;10.168;2023-08-20T03:36:15;8.15;;;5.93;;
27985;SDS011;15453;53.692;10.168;2023-08-20T03:38:41;9.80;;;6.40;;
27985;SDS011;15453;53.692;10.168;2023-08-20T03:41:06;7.93;;;6.05;;
27985;SDS011;15453;53.692;10.168;2023-08-20T03:43:31;7.43;;;6.20;;
27985;SDS011;15453;53.692;10.168;2023-08-20T03:45:57;11.23;;;5.67;;
27985;SDS011;15453;53.692;10.168;2023-08-20T03:48:22;8.20;;;5.43;;
27985;SDS011;15453;53.692;10.168;2023-08-20T03:50:47;7.10;;;5.65;;
27985;SDS011;15453;53.692;10.168;2023-08-20T03:53:12;11.10;;;6.88;;
27985;SDS011;15453;53.692;10.168;2023-08-20T03:55:38;5.80;;;5.20;;
27985;SDS011;15453;53.692;10.168;2023-08-20T03:58:03;6.95;;;5.75;;
27985;SDS011;15453;53.692;10.168;2023-08-20T04:00:28;7.95;;;5.63;;
27985;SDS011;15453;53.692;10.168;2023-08-20T04:02:54;7.03;;;5.97;;
27985;SDS011;15453;53.692;10.168;2023-08-20T04:05:19;9.05;;;5.80;;
27985;SDS011;15453;53.692;10.168;2023-08-20T04:07:44;10.10;;;5.28;;
27985;SDS011;15453;53.692;10.168;2023-08-20T04:10:10;6.70;;;5.63;;
27985;SDS011;15453;53.692;10.168;2023-08-20T04:12:35;8.05;;;5.75;;
27985;SDS011;15453;53.692;10.168;2023-08-20T04:15:00;7.32;;;5.65;;
27985;SDS011;15453;53.692;10.168;2023-08-20T04:17:26;8.25;;;6.22;;
27985;SDS011;15453;53.692;10.168;2023-08-20T04:19:51;8.10;;;6.47;;
27985;SDS011;15453;53.692;10.168;2023-08-20T04:22:16;10.25;;;6.55;;
27985;SDS011;15453;53.692;10.168;2023-08-20T04:24:41;9.55;;;6.90;;
27985;SDS011;15453;53.692;10.168;2023-08-20T04:27:07;7.90;;;5.97;;
27985;SDS011;15453;53.692;10.168;2023-08-20T04:29:32;8.40;;;5.93;;
27985;SDS011;15453;53.692;10.168;2023-08-20T04:31:57;7.63;;;5.88;;
27985;SDS011;15453;53.692;10.168;2023-08-20T04:34:23;7.15;;;5.18;;
27985;SDS011;15453;53.692;10.168;2023-08-20T04:36:48;8.55;;;5.70;;
27985;SDS011;15453;53.692;10.168;2023-08-20T04:39:13;7.80;;;5.15;;
27985;SDS011;15453;53.692;10.168;2023-08-20T04:41:38;6.30;;;5.03;;
27985;SDS011;15453;53.692;10.168;2023-08-20T04:44:04;6.70;;;4.85;;
27985;SDS011;15453;53.692;10.168;2023-08-20T04:46:29;6.90;;;4.80;;
27985;SDS011;15453;53.692;10.168;2023-08-20T04:48:54;9.43;;;5.63;;
27985;SDS011;15453;53.692;10.168;2023-08-20T04:51:19;7.20;;;4.75;;
27985;SDS011;15453;53.692;10.168;2023-08-20T04:53:45;7.88;;;5.07;;
27985;SDS011;15453;53.692;10.168;2023-08-20T04:56:12;9.30;;;5.47;;
27985;SDS011;15453;53.692;10.168;2023-08-20T04:58:38;8.18;;;5.18;;
27985;SDS011;15453;53.692;10.168;2023-08-20T05:01:03;10.63;;;5.63;;
27985;SDS011;15453;53.692;10.168;2023-08-20T05:03:28;10.00;;;5.85;;
27985;SDS011;15453;53.692;10.168;2023-08-20T05:05:53;9.90;;;5.50;;
27985;SDS011;15453;53.692;10.168;2023-08-20T05:08:19;8.05;;;5.00;;
27985;SDS011;15453;53.692;10.168;2023-08-20T05:10:44;13.32;;;6.47;;
27985;SDS011;15453;53.692;10.168;2023-08-20T05:13:09;15.45;;;7.80;;
27985;SDS011;15453;53.692;10.168;2023-08-20T05:15:35;13.23;;;8.40;;
27985;SDS011;15453;53.692;10.168;2023-08-20T05:18:00;10.82;;;7.18;;
27985;SDS011;15453;53.692;10.168;2023-08-20T05:20:26;12.13;;;8.00;;
27985;SDS011;15453;53.692;10.168;2023-08-20T05:22:51;14.95;;;7.60;;
27985;SDS011;15453;53.692;10.168;2023-08-20T05:25:16;13.55;;;7.97;;
27985;SDS011;15453;53.692;10.168;2023-08-20T05:27:41;11.35;;;7.57;;
27985;SDS011;15453;53.692;10.168;2023-08-20T05:30:07;10.65;;;6.90;;
27985;SDS011;15453;53.692;10.168;2023-08-20T05:32:33;12.95;;;8.23;;
27985;SDS011;15453;53.692;10.168;2023-08-20T05:34:59;10.63;;;6.93;;
27985;SDS011;15453;53.692;10.168;2023-08-20T05:37:24;12.00;;;7.20;;
27985;SDS011;15453;53.692;10.168;2023-08-20T05:39:49;6.78;;;5.78;;
27985;SDS011;15453;53.692;10.168;2023-08-20T05:42:14;8.77;;;5.35;;
27985;SDS011;15453;53.692;10.168;2023-08-20T05:44:40;9.05;;;5.82;;
27985;SDS011;15453;53.692;10.168;2023-08-20T05:47:05;11.38;;;6.40;;
27985;SDS011;15453;53.692;10.168;2023-08-20T05:49:30;16.13;;;6.88;;
27985;SDS011;15453;53.692;10.168;2023-08-20T05:51:55;9.68;;;5.82;;
27985;SDS011;15453;53.692;10.168;2023-08-20T05:54:21;13.57;;;6.10;;
27985;SDS011;15453;53.692;10.168;2023-08-20T05:56:46;9.45;;;5.50;;
27985;SDS011;15453;53.692;10.168;2023-08-20T05:59:11;10.38;;;5.40;;
27985;SDS011;15453;53.692;10.168;2023-08-20T06:01:36;7.85;;;5.03;;
27985;SDS011;15453;53.692;10.168;2023-08-20T06:04:02;9.60;;;5.38;;
27985;SDS011;15453;53.692;10.168;2023-08-20T06:06:27;11.63;;;5.47;;
27985;SDS011;15453;53.692;10.168;2023-08-20T06:08:53;13.30;;;5.55;;
27985;SDS011;15453;53.692;10.168;2023-08-20T06:11:19;11.93;;;5.65;;
27985;SDS011;15453;53.692;10.168;2023-08-20T06:13:45;11.73;;;5.93;;
27985;SDS011;15453;53.692;10.168;2023-08-20T06:16:10;11.93;;;5.97;;
27985;SDS011;15453;53.692;10.168;2023-08-20T06:18:35;10.75;;;5.28;;
27985;SDS011;15453;53.692;10.168;2023-08-20T06:21:01;12.23;;;6.47;;
27985;SDS011;15453;53.692;10.168;2023-08-20T06:23:27;16.40;;;6.07;;
27985;SDS011;15453;53.692;10.168;2023-08-20T06:25:52;9.18;;;4.75;;
27985;SDS011;15453;53.692;10.168;2023-08-20T06:28:17;9.80;;;5.10;;
27985;SDS011;15453;53.692;10.168;2023-08-20T06:30:44;8.80;;;5.25;;
27985;SDS011;15453;53.692;10.168;2023-08-20T06:33:09;11.88;;;5.00;;
27985;SDS011;15453;53.692;10.168;2023-08-20T06:35:34;12.70;;;4.97;;
27985;SDS011;15453;53.692;10.168;2023-08-20T06:38:00;8.55;;;4.25;;
27985;SDS011;15453;53.692;10.168;2023-08-20T06:40:25;8.27;;;4.25;;
27985;SDS011;15453;53.692;10.168;2023-08-20T06:42:50;10.60;;;4.38;;
27985;SDS011;15453;53.692;10.168;2023-08-20T06:45:15;7.90;;;4.27;;
27985;SDS011;15453;53.692;10.168;2023-08-20T06:47:41;11.20;;;4.93;;
27985;SDS011;15453;53.692;10.168;2023-08-20T06:50:06;11.33;;;5.00;;
27985;SDS011;15453;53.692;10.168;2023-08-20T06:52:31;11.52;;;5.28;;
27985;SDS011;15453;53.692;10.168;2023-08-20T06:54:57;12.07;;;6.32;;
27985;SDS011;15453;53.692;10.168;2023-08-20T06:57:22;8.52;;;5.50;;
27985;SDS011;15453;53.692;10.168;2023-08-20T06:59:47;9.93;;;6.32;;
27985;SDS011;15453;53.692;10.168;2023-08-20T07:02:13;10.35;;;5.15;;
27985;SDS011;15453;53.692;10.168;2023-08-20T07:04:38;9.65;;;6.32;;
27985;SDS011;15453;53.692;10.168;2023-08-20T07:07:04;8.02;;;6.30;;
27985;SDS011;15453;53.692;10.168;2023-08-20T07:09:33;11.88;;;7.93;;
27985;SDS011;15453;53.692;10.168;2023-08-20T07:11:58;10.73;;;7.22;;
27985;SDS011;15453;53.692;10.168;2023-08-20T07:14:24;12.90;;;8.75;;
27985;SDS011;15453;53.692;10.168;2023-08-20T07:16:49;12.07;;;8.03;;
27985;SDS011;15453;53.692;10.168;2023-08-20T07:19:14;9.98;;;6.95;;
27985;SDS011;15453;53.692;10.168;2023-08-20T07:21:39;14.52;;;9.18;;
27985;SDS011;15453;53.692;10.168;2023-08-20T07:24:05;13.05;;;8.63;;
27985;SDS011;15453;53.692;10.168;2023-08-20T07:26:30;16.23;;;10.40;;
27985;SDS011;15453;53.692;10.168;2023-08-20T07:28:56;14.63;;;9.85;;
27985;SDS011;15453;53.692;10.168;2023-08-20T07:31:21;14.88;;;10.38;;
27985;SDS011;15453;53.692;10.168;2023-08-20T07:33:47;15.15;;;9.10;;
27985;SDS011;15453;53.692;10.168;2023-08-20T07:36:13;14.98;;;9.95;;
27985;SDS011;15453;53.692;10.168;2023-08-20T07:38:40;17.38;;;11.18;;
27985;SDS011;15453;53.692;10.168;2023-08-20T07:41:07;20.08;;;12.63;;
27985;SDS011;15453;53.692;10.168;2023-08-20T07:43:32;21.00;;;12.40;;
27985;SDS011;15453;53.692;10.168;2023-08-20T07:45:58;19.47;;;11.10;;
27985;SDS011;15453;53.692;10.168;2023-08-20T07:48:23;13.00;;;8.50;;
27985;SDS011;15453;53.692;10.168;2023-08-20T07:50:48;18.33;;;10.90;;
27985;SDS011;15453;53.692;10.168;2023-08-20T07:53:13;19.73;;;11.33;;
27985;SDS011;15453;53.692;10.168;2023-08-20T07:55:39;15.77;;;10.25;;
27985;SDS011;15453;53.692;10.168;2023-08-20T07:58:04;21.25;;;12.07;;
27985;SDS011;15453;53.692;10.168;2023-08-20T08:00:29;17.80;;;11.20;;
27985;SDS011;15453;53.692;10.168;2023-08-20T08:02:54;22.97;;;11.50;;
27985;SDS011;15453;53.692;10.168;2023-08-20T08:05:20;19.83;;;11.98;;
27985;SDS011;15453;53.692;10.168;2023-08-20T08:07:45;18.92;;;11.18;;
27985;SDS011;15453;53.692;10.168;2023-08-20T08:10:10;17.13;;;10.88;;
27985;SDS011;15453;53.692;10.168;2023-08-20T08:12:36;17.55;;;10.95;;
27985;SDS011;15453;53.692;10.168;2023-08-20T08:15:01;18.40;;;11.05;;
27985;SDS011;15453;53.692;10.168;2023-08-20T08:17:27;13.52;;;9.23;;
27985;SDS011;15453;53.692;10.168;2023-08-20T08:19:52;16.45;;;8.93;;
27985;SDS011;15453;53.692;10.168;2023-08-20T08:22:19;13.10;;;8.07;;
27985;SDS011;15453;53.692;10.168;2023-08-20T08:24:45;16.45;;;9.20;;
27985;SDS011;15453;53.692;10.168;2023-08-20T08:27:10;15.65;;;8.55;;
27985;SDS011;15453;53.692;10.168;2023-08-20T08:29:35;11.15;;;7.07;;
27985;SDS011;15453;53.692;10.168;2023-08-20T08:32:00;11.07;;;6.78;;
27985;SDS011;15453;53.692;10.168;2023-08-20T08:34:26;9.93;;;5.03;;
27985;SDS011;15453;53.692;10.168;2023-08-20T08:36:51;8.80;;;4.10;;
27985;SDS011;15453;53.692;10.168;2023-08-20T08:39:16;7.85;;;4.15;;
27985;SDS011;15453;53.692;10.168;2023-08-20T08:41:41;7.53;;;3.15;;
27985;SDS011;15453;53.692;10.168;2023-08-20T08:44:08;8.88;;;3.60;;
27985;SDS011;15453;53.692;10.168;2023-08-20T08:46:34;8.27;;;2.90;;
27985;SDS011;15453;53.692;10.168;2023-08-20T08:49:01;7.35;;;2.85;;
27985;SDS011;15453;53.692;10.168;2023-08-20T08:51:27;6.82;;;2.15;;
27985;SDS011;15453;53.692;10.168;2023-08-20T08:53:53;9.05;;;2.53;;
27985;SDS011;15453;53.692;10.168;2023-08-20T08:56:19;5.10;;;2.08;;
27985;SDS011;15453;53.692;10.168;2023-08-20T08:58:45;6.32;;;2.42;;
27985;SDS011;15453;53.692;10.168;2023-08-20T09:01:10;4.50;;;1.70;;
27985;SDS011;15453;53.692;10.168;2023-08-20T09:03:35;5.55;;;1.90;;
27985;SDS011;15453;53.692;10.168;2023-08-20T09:06:01;4.78;;;2.03;;
27985;SDS011;15453;53.692;10.168;2023-08-20T09:08:31;5.72;;;1.80;;
27985;SDS011;15453;53.692;10.168;2023-08-20T09:10:58;5.90;;;1.70;;
27985;SDS011;15453;53.692;10.168;2023-08-20T09:13:25;5.65;;;2.53;;
27985;SDS011;15453;53.692;10.168;2023-08-20T09:16:11;8.45;;;2.20;;
27985;SDS011;15453;53.692;10.168;2023-08-20T09:18:40;6.32;;;2.30;;
27985;SDS011;15453;53.692;10.168;2023-08-20T09:21:10;7.43;;;2.40;;
27985;SDS011;15453;53.692;10.168;2023-08-20T09:23:38;4.65;;;2.45;;
27985;SDS011;15453;53.692;10.168;2023-08-20T09:26:04;8.63;;;2.92;;
27985;SDS011;15453;53.692;10.168;2023-08-20T09:28:44;8.30;;;2.92;;
27985;SDS011;15453;53.692;10.168;2023-08-20T09:31:11;11.10;;;3.03;;
27985;SDS011;15453;53.692;10.168;2023-08-20T09:33:38;5.57;;;2.95;;
27985;SDS011;15453;53.692;10.168;2023-08-20T09:38:42;5.32;;;2.55;;
27985;SDS011;15453;53.692;10.168;2023-08-20T09:41:08;5.50;;;2.92;;
27985;SDS011;15453;53.692;10.168;2023-08-20T09:43:33;5.38;;;2.72;;
27985;SDS011;15453;53.692;10.168;2023-08-20T09:48:29;5.95;;;2.67;;
27985;SDS011;15453;53.692;10.168;2023-08-20T09:50:59;3.78;;;2.20;;
27985;SDS011;15453;53.692;10.168;2023-08-20T09:53:33;5.90;;;2.40;;
27985;SDS011;15453;53.692;10.168;2023-08-20T09:56:15;6.78;;;2.50;;
27985;SDS011;15453;53.692;10.168;2023-08-20T09:58:45;6.43;;;2.75;;
27985;SDS011;15453;53.692;10.168;2023-08-20T10:01:13;5.68;;;2.30;;
27985;SDS011;15453;53.692;10.168;2023-08-20T10:03:39;5.60;;;2.47;;
27985;SDS011;15453;53.692;10.168;2023-08-20T10:06:06;5.90;;;2.22;;
27985;SDS011;15453;53.692;10.168;2023-08-20T10:08:31;6.20;;;2.15;;
27985;SDS011;15453;53.692;10.168;2023-08-20T10:10:58;5.72;;;2.10;;
27985;SDS011;15453;53.692;10.168;2023-08-20T10:13:23;5.77;;;2.00;;
27985;SDS011;15453;53.692;10.168;2023-08-20T10:15:48;5.63;;;2.00;;
27985;SDS011;15453;53.692;10.168;2023-08-20T10:18:15;4.53;;;1.90;;
27985;SDS011;15453;53.692;10.168;2023-08-20T10:20:43;5.80;;;2.15;;
27985;SDS011;15453;53.692;10.168;2023-08-20T10:23:09;6.22;;;2.08;;
27985;SDS011;15453;53.692;10.168;2023-08-20T10:25:40;4.07;;;1.90;;
27985;SDS011;15453;53.692;10.168;2023-08-20T10:28:23;4.97;;;2.13;;
27985;SDS011;15453;53.692;10.168;2023-08-20T10:33:30;8.82;;;2.45;;
27985;SDS011;15453;53.692;10.168;2023-08-20T10:35:55;5.60;;;1.90;;
27985;SDS011;15453;53.692;10.168;2023-08-20T10:38:20;5.07;;;2.13;;
27985;SDS011;15453;53.692;10.168;2023-08-20T10:40:57;4.53;;;1.63;;
27985;SDS011;15453;53.692;10.168;2023-08-20T10:46:22;3.92;;;1.63;;
27985;SDS011;15453;53.692;10.168;2023-08-20T10:49:02;2.15;;;1.40;;
27985;SDS011;15453;53.692;10.168;2023-08-20T10:51:29;5.85;;;2.22;;
27985;SDS011;15453;53.692;10.168;2023-08-20T10:56:42;5.10;;;1.92;;
27985;SDS011;15453;53.692;10.168;2023-08-20T10:59:23;4.20;;;1.85;;
27985;SDS011;15453;53.692;10.168;2023-08-20T11:01:55;4.80;;;1.85;;
27985;SDS011;15453;53.692;10.168;2023-08-20T11:04:25;7.47;;;2.20;;
27985;SDS011;15453;53.692;10.168;2023-08-20T11:06:57;6.15;;;1.67;;
27985;SDS011;15453;53.692;10.168;2023-08-20T11:09:24;6.88;;;2.78;;
27985;SDS011;15453;53.692;10.168;2023-08-20T11:11:53;6.50;;;2.00;;
27985;SDS011;15453;53.692;10.168;2023-08-20T11:14:19;4.18;;;1.73;;
27985;SDS011;15453;53.692;10.168;2023-08-20T11:16:45;7.10;;;2.00;;
27985;SDS011;15453;53.692;10.168;2023-08-20T11:19:14;6.13;;;2.30;;
27985;SDS011;15453;53.692;10.168;2023-08-20T11:21:43;5.43;;;2.20;;
27985;SDS011;15453;53.692;10.168;2023-08-20T11:24:09;4.07;;;1.98;;
27985;SDS011;15453;53.692;10.168;2023-08-20T11:26:35;5.80;;;1.95;;
27985;SDS011;15453;53.692;10.168;2023-08-20T11:29:10;3.92;;;1.80;;
27985;SDS011;15453;53.692;10.168;2023-08-20T11:31:40;4.25;;;1.88;;
27985;SDS011;15453;53.692;10.168;2023-08-20T11:34:06;6.35;;;1.65;;
27985;SDS011;15453;53.692;10.168;2023-08-20T11:36:32;7.43;;;1.92;;
27985;SDS011;15453;53.692;10.168;2023-08-20T11:38:58;6.30;;;2.33;;
27985;SDS011;15453;53.692;10.168;2023-08-20T11:41:24;4.68;;;1.90;;
27985;SDS011;15453;53.692;10.168;2023-08-20T11:43:50;4.25;;;1.60;;
27985;SDS011;15453;53.692;10.168;2023-08-20T11:46:18;4.13;;;1.75;;
27985;SDS011;15453;53.692;10.168;2023-08-20T11:49:04;6.50;;;1.90;;
27985;SDS011;15453;53.692;10.168;2023-08-20T11:51:44;5.35;;;1.92;;
27985;SDS011;15453;53.692;10.168;2023-08-20T11:54:14;5.85;;;2.38;;
27985;SDS011;15453;53.692;10.168;2023-08-20T11:56:43;6.10;;;2.25;;
27985;SDS011;15453;53.692;10.168;2023-08-20T11:59:11;7.35;;;2.17;;
27985;SDS011;15453;53.692;10.168;2023-08-20T12:01:37;4.45;;;2.00;;
27985;SDS011;15453;53.692;10.168;2023-08-20T12:04:03;8.32;;;2.67;;
27985;SDS011;15453;53.692;10.168;2023-08-20T12:06:29;3.97;;;1.88;;
27985;SDS011;15453;53.692;10.168;2023-08-20T12:08:56;3.40;;;1.48;;
27985;SDS011;15453;53.692;10.168;2023-08-20T12:11:28;4.25;;;1.70;;
27985;SDS011;15453;53.692;10.168;2023-08-20T12:13:54;4.78;;;1.90;;
27985;SDS011;15453;53.692;10.168;2023-08-20T12:16:23;6.20;;;1.80;;
27985;SDS011;15453;53.692;10.168;2023-08-20T12:18:50;7.38;;;2.20;;
27985;SDS011;15453;53.692;10.168;2023-08-20T12:21:16;4.95;;;2.00;;
27985;SDS011;15453;53.692;10.168;2023-08-20T12:23:41;4.07;;;1.65;;
27985;SDS011;15453;53.692;10.168;2023-08-20T12:26:06;5.97;;;2.00;;
27985;SDS011;15453;53.692;10.168;2023-08-20T12:28:33;4.68;;;1.80;;
27985;SDS011;15453;53.692;10.168;2023-08-20T12:30:58;3.92;;;1.60;;
27985;SDS011;15453;53.692;10.168;2023-08-20T12:33:23;4.13;;;1.67;;
27985;SDS011;15453;53.692;10.168;2023-08-20T12:35:49;3.38;;;1.80;;
27985;SDS011;15453;53.692;10.168;2023-08-20T12:38:14;5.35;;;2.08;;
27985;SDS011;15453;53.692;10.168;2023-08-20T12:40:40;6.47;;;2.13;;
27985;SDS011;15453;53.692;10.168;2023-08-20T12:43:05;5.33;;;2.00;;
27985;SDS011;15453;53.692;10.168;2023-08-20T12:45:30;6.37;;;1.70;;
27985;SDS011;15453;53.692;10.168;2023-08-20T12:47:55;6.13;;;2.83;;
27985;SDS011;15453;53.692;10.168;2023-08-20T12:50:21;4.22;;;2.08;;
27985;SDS011;15453;53.692;10.168;2023-08-20T12:52:46;3.97;;;1.50;;
27985;SDS011;15453;53.692;10.168;2023-08-20T12:55:14;4.53;;;1.55;;
27985;SDS011;15453;53.692;10.168;2023-08-20T12:57:51;7.38;;;1.90;;
27985;SDS011;15453;53.692;10.168;2023-08-20T13:02:44;3.47;;;1.57;;
27985;SDS011;15453;53.692;10.168;2023-08-20T13:05:09;4.20;;;1.80;;
27985;SDS011;15453;53.692;10.168;2023-08-20T13:07:36;4.40;;;1.55;;
27985;SDS011;15453;53.692;10.168;2023-08-20T13:10:01;3.90;;;1.80;;
27985;SDS011;15453;53.692;10.168;2023-08-20T13:12:27;7.60;;;3.08;;
27985;SDS011;15453;53.692;10.168;2023-08-20T13:14:53;5.30;;;1.92;;
27985;SDS011;15453;53.692;10.168;2023-08-20T13:17:18;6.00;;;1.88;;
27985;SDS011;15453;53.692;10.168;2023-08-20T13:19:44;6.10;;;1.90;;
27985;SDS011;15453;53.692;10.168;2023-08-20T13:22:09;4.18;;;1.60;;
27985;SDS011;15453;53.692;10.168;2023-08-20T13:24:34;3.33;;;1.43;;
27985;SDS011;15453;53.692;10.168;2023-08-20T13:26:59;5.38;;;1.90;;
27985;SDS011;15453;53.692;10.168;2023-08-20T13:29:25;3.78;;;1.48;;
27985;SDS011;15453;53.692;10.168;2023-08-20T13:31:50;3.77;;;1.43;;
27985;SDS011;15453;53.692;10.168;2023-08-20T13:34:15;6.67;;;1.93;;
27985;SDS011;15453;53.692;10.168;2023-08-20T13:36:41;4.00;;;1.55;;
27985;SDS011;15453;53.692;10.168;2023-08-20T13:39:06;4.00;;;1.77;;
27985;SDS011;15453;53.692;10.168;2023-08-20T13:41:31;5.37;;;1.70;;
27985;SDS011;15453;53.692;10.168;2023-08-20T13:43:56;3.42;;;1.55;;
27985;SDS011;15453;53.692;10.168;2023-08-20T13:46:22;7.35;;;2.40;;
27985;SDS011;15453;53.692;10.168;2023-08-20T13:48:47;4.07;;;2.03;;
27985;SDS011;15453;53.692;10.168;2023-08-20T13:51:12;6.50;;;1.90;;
27985;SDS011;15453;53.692;10.168;2023-08-20T13:53:39;5.75;;;1.70;;
27985;SDS011;15453;53.692;10.168;2023-08-20T13:56:04;5.53;;;1.80;;
27985;SDS011;15453;53.692;10.168;2023-08-20T13:58:29;4.97;;;2.13;;
27985;SDS011;15453;53.692;10.168;2023-08-20T14:00:54;4.03;;;1.70;;
27985;SDS011;15453;53.692;10.168;2023-08-20T14:03:20;3.45;;;1.63;;
27985;SDS011;15453;53.692;10.168;2023-08-20T14:05:45;5.93;;;1.90;;
27985;SDS011;15453;53.692;10.168;2023-08-20T14:08:10;4.70;;;1.67;;
27985;SDS011;15453;53.692;10.168;2023-08-20T14:10:36;3.72;;;1.42;;
27985;SDS011;15453;53.692;10.168;2023-08-20T14:13:01;3.72;;;1.92;;
27985;SDS011;15453;53.692;10.168;2023-08-20T14:15:28;5.60;;;1.55;;
27985;SDS011;15453;53.692;10.168;2023-08-20T14:17:53;3.97;;;1.40;;
27985;SDS011;15453;53.692;10.168;2023-08-20T14:20:19;4.17;;;1.60;;
27985;SDS011;15453;53.692;10.168;2023-08-20T14:22:46;4.50;;;1.50;;
27985;SDS011;15453;53.692;10.168;2023-08-20T14:25:11;4.25;;;1.83;;
27985;SDS011;15453;53.692;10.168;2023-08-20T14:27:37;4.13;;;1.55;;
27985;SDS011;15453;53.692;10.168;2023-08-20T14:30:02;3.05;;;1.48;;
27985;SDS011;15453;53.692;10.168;2023-08-20T14:32:35;5.47;;;1.42;;
27985;SDS011;15453;53.692;10.168;2023-08-20T14:35:00;4.85;;;1.88;;
27985;SDS011;15453;53.692;10.168;2023-08-20T14:37:26;4.68;;;1.65;;
27985;SDS011;15453;53.692;10.168;2023-08-20T14:39:52;3.45;;;1.60;;
27985;SDS011;15453;53.692;10.168;2023-08-20T14:42:18;5.72;;;2.70;;
27985;SDS011;15453;53.692;10.168;2023-08-20T14:44:43;4.97;;;2.03;;
27985;SDS011;15453;53.692;10.168;2023-08-20T14:47:09;3.58;;;1.50;;
27985;SDS011;15453;53.692;10.168;2023-08-20T14:49:34;3.08;;;1.15;;